Time;durP1;ratioP1;P1;durP2;ratioP2;P2;SDS_P1;SDS_P2;PMS_P1;PMS_P2;Temp;Humidity;BMP_temperature;BMP_pressure;BME280_temperature;BME280_humidity;BME280_pressure;Samples;Min_cycle;Max_cycle;Signal;HPM_P1;HPM_P2
2023/06/20 00:01:04;;;;;;;18.38;13.18;;;18.10;99.90;;;;;;4994737;28;20415;-70
2023/06/20 00:03:30;;;;;;;21.65;12.13;;;18.10;99.90;;;;;;4928145;28;207717;-69
2023/06/20 00:05:56;;;;;;;20.45;12.60;;;18.10;99.90;;;;;;4957622;28;20057;-70
2023/06/20 00:08:22;;;;;;;20.00;12.70;;;18.10;99.90;;;;;;4933819;28;209845;-70
2023/06/20 00:10:48;;;;;;;19.27;11.45;;;18.00;99.90;;;;;;5011747;28;20050;-70
2023/06/20 00:13:17;;;;;;;18.95;10.95;;;18.00;99.90;;;;;;4950589;28;208621;-70
2023/06/20 00:15:44;;;;;;;16.10;10.63;;;18.00;99.90;;;;;;4961212;28;20054;-71
2023/06/20 00:18:10;;;;;;;18.48;11.18;;;17.90;99.90;;;;;;4978254;28;208684;-69
2023/06/20 00:20:36;;;;;;;17.50;11.18;;;17.90;99.90;;;;;;4942942;28;89454;-70
2023/06/20 00:23:02;;;;;;;16.80;10.98;;;17.90;99.90;;;;;;4967999;28;20054;-70
2023/06/20 00:25:29;;;;;;;18.90;11.00;;;17.90;99.90;;;;;;4929188;28;208723;-70
2023/06/20 00:27:55;;;;;;;16.05;10.50;;;17.90;99.90;;;;;;4977964;28;20051;-70
2023/06/20 00:30:21;;;;;;;16.42;10.10;;;17.90;99.90;;;;;;4957173;28;227477;-70
2023/06/20 00:32:47;;;;;;;17.60;10.77;;;17.80;99.90;;;;;;4984650;28;20526;-70
2023/06/20 00:35:13;;;;;;;15.02;9.77;;;17.80;99.90;;;;;;4952431;28;207571;-70
2023/06/20 00:37:39;;;;;;;15.90;9.88;;;17.90;99.90;;;;;;4985167;28;20073;-70
2023/06/20 00:40:07;;;;;;;16.67;9.45;;;17.90;99.90;;;;;;4961399;28;207350;-70
2023/06/20 00:42:33;;;;;;;17.75;10.10;;;17.90;99.90;;;;;;4981424;28;20554;-70
2023/06/20 00:45:00;;;;;;;16.88;9.90;;;17.80;99.90;;;;;;4951147;28;207668;-70
2023/06/20 00:47:27;;;;;;;18.00;10.25;;;17.80;99.90;;;;;;4989895;28;20061;-70
2023/06/20 00:49:53;;;;;;;18.20;10.27;;;17.80;99.90;;;;;;4933670;28;210071;-70
2023/06/20 00:52:21;;;;;;;15.95;9.50;;;17.80;99.90;;;;;;4971100;28;20059;-69
2023/06/20 00:54:48;;;;;;;16.00;9.00;;;17.80;99.90;;;;;;4899378;28;209374;-70
2023/06/20 00:57:16;;;;;;;16.15;9.35;;;17.70;99.90;;;;;;4970272;28;20046;-70
2023/06/20 00:59:46;;;;;;;15.55;9.25;;;17.70;99.90;;;;;;4947534;28;209888;-69
2023/06/20 01:02:16;;;;;;;15.27;9.30;;;17.80;99.90;;;;;;4987135;28;20054;-69
2023/06/20 01:04:47;;;;;;;16.05;9.30;;;17.70;99.90;;;;;;4956812;28;207570;-69
2023/06/20 01:07:24;;;;;;;17.33;8.70;;;17.70;99.90;;;;;;4989053;28;20519;-69
2023/06/20 01:10:12;;;;;;;14.93;9.07;;;17.70;99.90;;;;;;4943401;28;217079;-69
2023/06/20 01:12:53;;;;;;;15.38;8.55;;;17.70;99.90;;;;;;4982007;28;20042;-69
2023/06/20 01:15:39;;;;;;;18.42;9.75;;;17.70;99.90;;;;;;4961774;28;208903;-69
2023/06/20 01:18:11;;;;;;;14.10;9.50;;;17.80;99.90;;;;;;4982680;28;20444;-70
2023/06/20 01:20:44;;;;;;;15.50;8.98;;;17.70;99.90;;;;;;4926465;28;206414;-69
2023/06/20 01:23:19;;;;;;;16.52;9.25;;;17.70;99.90;;;;;;4972029;28;245768;-69
2023/06/20 01:26:05;;;;;;;17.83;9.95;;;17.70;99.90;;;;;;4942300;28;70521;-70
2023/06/20 01:28:43;;;;;;;16.00;9.50;;;17.70;99.90;;;;;;4906148;28;207181;-70
2023/06/20 01:31:24;;;;;;;16.23;10.35;;;17.70;99.90;;;;;;4976059;28;20543;-70
2023/06/20 01:34:15;;;;;;;18.02;10.07;;;17.70;99.90;;;;;;4923121;28;208874;-69
2023/06/20 01:36:46;;;;;;;21.55;10.65;;;17.70;99.90;;;;;;4964719;28;20065;-70
2023/06/20 01:39:21;;;;;;;16.42;10.13;;;17.70;99.90;;;;;;4916866;28;215976;-69
2023/06/20 01:41:48;;;;;;;15.85;10.35;;;17.70;99.90;;;;;;4968648;28;20050;-70
2023/06/20 01:44:16;;;;;;;19.00;10.50;;;17.60;99.90;;;;;;4920969;28;207245;-70
2023/06/20 01:46:45;;;;;;;17.25;10.57;;;17.60;99.90;;;;;;4964960;28;20055;-69
2023/06/20 01:49:12;;;;;;;16.77;10.68;;;17.60;99.90;;;;;;4924947;28;216604;-70
2023/06/20 01:51:39;;;;;;;16.25;10.27;;;17.60;99.90;;;;;;4967708;28;20055;-70
2023/06/20 01:54:07;;;;;;;16.63;10.32;;;17.60;99.90;;;;;;4908452;28;212159;-70
2023/06/20 01:56:34;;;;;;;17.02;10.32;;;17.60;99.90;;;;;;4956300;28;20043;-70
2023/06/20 01:59:02;;;;;;;16.98;10.48;;;17.60;99.90;;;;;;4918073;28;222315;-69
2023/06/20 02:01:30;;;;;;;15.43;9.85;;;17.60;99.90;;;;;;4956916;28;20078;-69
2023/06/20 02:03:57;;;;;;;16.80;10.35;;;17.60;99.90;;;;;;4922600;28;211190;-69
2023/06/20 02:06:24;;;;;;;16.05;9.90;;;17.60;99.90;;;;;;4966813;28;20047;-69
2023/06/20 02:08:52;;;;;;;18.40;10.18;;;17.60;99.90;;;;;;4913748;28;207150;-70
2023/06/20 02:11:19;;;;;;;18.90;10.82;;;17.60;99.90;;;;;;4979643;28;20059;-70
2023/06/20 02:13:49;;;;;;;16.38;10.60;;;17.60;99.90;;;;;;4918982;28;204385;-70
2023/06/20 02:16:17;;;;;;;16.38;10.82;;;17.60;99.90;;;;;;4983655;28;20054;-70
2023/06/20 02:18:43;;;;;;;17.33;10.02;;;17.60;99.90;;;;;;4923841;28;205913;-70
2023/06/20 02:21:28;;;;;;;18.45;10.43;;;17.70;99.90;;;;;;4987198;28;20055;-70
2023/06/20 02:23:55;;;;;;;16.85;10.55;;;17.70;99.90;;;;;;4917595;28;209379;-70
2023/06/20 02:26:28;;;;;;;19.25;9.95;;;17.70;99.90;;;;;;4948851;28;20063;-70
2023/06/20 02:28:58;;;;;;;18.40;10.35;;;17.70;99.90;;;;;;4916805;28;211156;-70
2023/06/20 02:31:28;;;;;;;16.40;11.32;;;17.70;99.90;;;;;;4949128;28;20492;-70
2023/06/20 02:33:57;;;;;;;17.38;9.80;;;17.70;99.90;;;;;;4922290;28;216346;-70
2023/06/20 02:36:27;;;;;;;19.33;10.70;;;17.70;99.90;;;;;;4986243;28;20066;-70
2023/06/20 02:38:55;;;;;;;15.55;10.45;;;17.70;99.90;;;;;;4934277;28;213487;-69
2023/06/20 02:41:21;;;;;;;17.50;10.70;;;17.70;99.90;;;;;;4991131;28;20058;-69
2023/06/20 02:43:49;;;;;;;17.75;10.50;;;17.70;99.90;;;;;;4930499;28;205834;-70
2023/06/20 02:46:40;;;;;;;17.67;10.70;;;17.70;99.90;;;;;;4999606;28;20169;-69
2023/06/20 02:49:27;;;;;;;16.80;10.80;;;17.60;99.90;;;;;;4939436;28;178742;-69
2023/06/20 02:51:53;;;;;;;16.40;10.95;;;17.60;99.90;;;;;;4964575;28;20062;-70
2023/06/20 02:54:46;;;;;;;17.75;11.18;;;17.60;99.90;;;;;;4923688;28;134471;-69
2023/06/20 02:57:17;;;;;;;18.90;11.73;;;17.60;99.90;;;;;;4983931;28;20046;-69
2023/06/20 02:59:48;;;;;;;18.75;10.63;;;17.50;99.90;;;;;;4914862;28;225654;-69
2023/06/20 03:02:18;;;;;;;16.95;11.38;;;17.50;99.90;;;;;;4989248;28;20747;-69
2023/06/20 03:04:47;;;;;;;20.42;12.32;;;17.50;99.90;;;;;;4944171;28;215371;-69
2023/06/20 03:07:15;;;;;;;21.58;12.25;;;17.60;99.90;;;;;;4974238;28;20132;-69
2023/06/20 03:09:42;;;;;;;18.70;12.23;;;17.50;99.90;;;;;;4930143;28;212096;-69
2023/06/20 03:12:09;;;;;;;19.08;12.18;;;17.50;99.90;;;;;;4985155;28;20407;-69
2023/06/20 03:14:35;;;;;;;20.02;12.60;;;17.50;99.90;;;;;;4947016;28;209265;-69
2023/06/20 03:17:01;;;;;;;22.00;13.57;;;17.50;99.90;;;;;;4978339;28;20072;-69
2023/06/20 03:19:27;;;;;;;18.15;11.90;;;17.50;99.90;;;;;;4920520;28;212661;-69
2023/06/20 03:21:54;;;;;;;18.60;12.18;;;17.50;99.90;;;;;;4971712;28;20400;-69
2023/06/20 03:24:20;;;;;;;18.23;13.05;;;17.50;99.90;;;;;;4930394;28;233053;-70
2023/06/20 03:26:46;;;;;;;21.92;12.70;;;17.50;99.90;;;;;;4999633;28;20050;-71
2023/06/20 03:29:12;;;;;;;17.60;12.52;;;17.50;99.90;;;;;;4940485;28;188438;-69
2023/06/20 03:31:38;;;;;;;17.55;12.10;;;17.50;99.90;;;;;;4989446;28;20047;-70
2023/06/20 03:34:04;;;;;;;19.67;13.13;;;17.50;99.90;;;;;;4938368;28;253825;-69
2023/06/20 03:36:30;;;;;;;17.23;12.02;;;17.50;99.90;;;;;;5001301;28;20785;-69
2023/06/20 03:38:57;;;;;;;20.92;12.82;;;17.50;99.90;;;;;;4946285;28;208430;-69
2023/06/20 03:41:23;;;;;;;19.75;12.77;;;17.50;99.90;;;;;;5003783;28;20046;-70
2023/06/20 03:43:49;;;;;;;19.48;13.23;;;17.50;99.90;;;;;;4934856;28;207269;-69
2023/06/20 03:46:15;;;;;;;21.00;13.82;;;17.50;99.90;;;;;;5001082;28;20114;-69
2023/06/20 03:48:41;;;;;;;24.88;13.02;;;17.50;99.90;;;;;;4943014;28;205543;-70
2023/06/20 03:51:07;;;;;;;22.90;13.50;;;17.60;99.90;;;;;;5004476;28;20053;-70
2023/06/20 03:53:34;;;;;;;18.75;11.95;;;17.60;99.90;;;;;;4930168;28;206656;-70
2023/06/20 03:56:00;;;;;;;20.55;13.65;;;17.60;99.90;;;;;;4973639;28;20055;-69
2023/06/20 03:58:26;;;;;;;23.65;14.35;;;17.60;99.90;;;;;;4930529;28;206727;-70
2023/06/20 04:00:52;;;;;;;20.98;13.73;;;17.60;99.90;;;;;;4973918;28;20061;-71
2023/06/20 04:03:18;;;;;;;19.48;12.38;;;17.60;99.90;;;;;;4919576;28;210956;-70
2023/06/20 04:05:44;;;;;;;20.60;13.88;;;17.60;99.90;;;;;;5011403;28;20259;-70
2023/06/20 04:08:10;;;;;;;18.90;12.50;;;17.60;99.90;;;;;;4978561;28;208577;-70
2023/06/20 04:10:37;;;;;;;19.48;13.52;;;17.60;99.90;;;;;;4956788;28;103906;-70
2023/06/20 04:13:03;;;;;;;19.27;13.07;;;17.60;99.90;;;;;;4967101;28;20067;-70
2023/06/20 04:15:30;;;;;;;18.55;12.63;;;17.60;99.90;;;;;;4957165;28;207363;-70
2023/06/20 04:17:56;;;;;;;19.42;12.75;;;17.60;99.90;;;;;;4984667;28;20055;-70
2023/06/20 04:20:22;;;;;;;18.88;11.80;;;17.70;99.90;;;;;;4943539;28;212063;-70
2023/06/20 04:22:48;;;;;;;17.90;12.35;;;17.70;99.90;;;;;;4985046;28;20492;-70
2023/06/20 04:25:15;;;;;;;18.42;12.00;;;17.70;99.90;;;;;;4936599;28;219812;-70
2023/06/20 04:27:42;;;;;;;18.10;11.10;;;17.70;99.90;;;;;;4997362;28;20051;-70
2023/06/20 04:30:09;;;;;;;17.70;11.00;;;17.80;99.90;;;;;;4936965;28;236555;-70
2023/06/20 04:32:36;;;;;;;17.45;10.25;;;17.90;99.90;;;;;;4980561;28;20070;-70
2023/06/20 04:35:03;;;;;;;17.27;10.68;;;17.90;99.90;;;;;;4962872;28;124738;-70
2023/06/20 04:37:29;;;;;;;16.23;10.35;;;18.00;99.90;;;;;;4958076;28;20085;-70
2023/06/20 04:39:57;;;;;;;17.75;10.13;;;18.00;99.90;;;;;;4921609;28;217514;-69
2023/06/20 04:42:23;;;;;;;15.20;9.63;;;18.10;99.90;;;;;;4969600;28;20070;-70
2023/06/20 04:44:49;;;;;;;18.25;10.40;;;18.20;99.90;;;;;;4918338;28;212664;-70
2023/06/20 04:47:16;;;;;;;16.98;10.52;;;18.20;99.90;;;;;;4972339;28;20059;-70
2023/06/20 04:49:43;;;;;;;17.55;10.75;;;18.20;99.90;;;;;;4932546;28;206477;-70
2023/06/20 04:52:09;;;;;;;18.05;11.20;;;18.20;99.90;;;;;;4964827;28;20062;-70
2023/06/20 04:54:35;;;;;;;18.05;10.60;;;18.30;99.90;;;;;;4927295;28;207458;-70
2023/06/20 04:57:02;;;;;;;15.80;10.65;;;18.30;99.90;;;;;;4968616;28;20094;-70
2023/06/20 04:59:28;;;;;;;17.10;11.65;;;18.30;99.90;;;;;;4949596;28;212395;-70
2023/06/20 05:01:55;;;;;;;19.30;10.82;;;18.30;99.90;;;;;;4999020;28;20046;-69
2023/06/20 05:04:22;;;;;;;18.63;11.60;;;18.30;99.90;;;;;;4954249;28;206974;-69
2023/06/20 05:06:48;;;;;;;15.63;10.90;;;18.30;99.90;;;;;;4981082;28;20054;-70
2023/06/20 05:09:14;;;;;;;17.60;10.65;;;18.30;99.90;;;;;;4946876;28;207808;-70
2023/06/20 05:11:41;;;;;;;16.80;11.20;;;18.30;99.90;;;;;;4970511;28;20401;-69
2023/06/20 05:14:07;;;;;;;17.38;11.25;;;18.40;99.90;;;;;;4921729;28;127132;-69
2023/06/20 05:16:34;;;;;;;19.55;11.80;;;18.40;99.90;;;;;;4991939;28;20055;-71
2023/06/20 05:19:13;;;;;;;17.50;12.02;;;18.50;99.90;;;;;;4948534;28;206916;-68
2023/06/20 05:21:39;;;;;;;21.70;12.10;;;18.50;99.90;;;;;;5009545;28;20065;-69
2023/06/20 05:24:05;;;;;;;16.80;11.70;;;18.50;99.90;;;;;;4937441;28;212167;-70
2023/06/20 05:26:32;;;;;;;18.35;11.82;;;18.60;99.90;;;;;;4980567;28;20054;-69
2023/06/20 05:28:58;;;;;;;17.15;11.88;;;18.60;99.90;;;;;;4930965;28;229556;-70
2023/06/20 05:31:24;;;;;;;20.30;12.30;;;18.70;99.90;;;;;;5001053;28;20058;-69
2023/06/20 05:33:51;;;;;;;16.08;11.52;;;18.80;99.90;;;;;;4920989;28;231379;-69
2023/06/20 05:36:17;;;;;;;19.20;12.60;;;18.80;99.90;;;;;;4964686;28;20059;-70
2023/06/20 05:38:43;;;;;;;20.35;12.07;;;18.90;99.90;;;;;;4947413;28;138386;-70
2023/06/20 05:41:14;;;;;;;18.40;12.50;;;18.90;99.90;;;;;;4980660;28;20423;-69
2023/06/20 05:43:40;;;;;;;17.70;12.30;;;19.00;99.90;;;;;;4931700;28;212021;-70
2023/06/20 05:46:06;;;;;;;17.90;11.60;;;19.00;99.90;;;;;;4970566;28;20065;-70
2023/06/20 05:48:33;;;;;;;16.60;11.37;;;19.00;99.90;;;;;;4908874;28;222795;-69
2023/06/20 05:51:00;;;;;;;18.58;11.98;;;19.10;99.90;;;;;;4952815;28;20519;-70
2023/06/20 05:53:27;;;;;;;17.08;12.23;;;19.20;99.90;;;;;;4883383;28;216011;-70
2023/06/20 05:55:53;;;;;;;16.08;10.77;;;19.30;99.90;;;;;;5008711;28;20050;-70
2023/06/20 05:58:20;;;;;;;16.88;11.35;;;19.30;99.90;;;;;;4945964;28;212493;-70
2023/06/20 06:00:46;;;;;;;17.70;11.65;;;19.40;99.90;;;;;;5006800;28;20062;-71
2023/06/20 06:03:12;;;;;;;18.02;11.65;;;19.50;99.90;;;;;;4970754;28;222775;-70
2023/06/20 06:05:41;;;;;;;16.27;11.20;;;19.50;99.90;;;;;;4931399;28;104102;-71
2023/06/20 06:08:08;;;;;;;17.27;11.38;;;19.50;99.90;;;;;;4985866;28;20065;-71
2023/06/20 06:10:34;;;;;;;15.65;10.90;;;19.60;99.90;;;;;;4952049;28;206520;-70
2023/06/20 06:13:01;;;;;;;15.60;10.73;;;19.60;99.90;;;;;;4965294;28;20078;-70
2023/06/20 06:15:27;;;;;;;16.17;10.63;;;19.70;99.90;;;;;;4957028;28;230447;-70
2023/06/20 06:17:53;;;;;;;18.77;10.85;;;19.70;99.90;;;;;;4980950;28;20071;-69
2023/06/20 06:20:19;;;;;;;18.70;10.77;;;19.90;99.90;;;;;;4944839;28;215159;-69
2023/06/20 06:22:46;;;;;;;16.20;9.90;;;19.90;99.90;;;;;;4981245;28;20054;-71
2023/06/20 06:25:12;;;;;;;16.17;10.60;;;20.10;99.90;;;;;;4946220;28;230584;-71
2023/06/20 06:27:38;;;;;;;15.18;10.15;;;20.20;99.90;;;;;;4990604;28;20047;-71
2023/06/20 06:30:05;;;;;;;16.88;10.38;;;20.40;99.90;;;;;;4925134;28;225714;-71
2023/06/20 06:32:33;;;;;;;18.08;10.45;;;20.50;99.90;;;;;;4984105;28;20050;-71
2023/06/20 06:35:00;;;;;;;15.95;9.63;;;20.60;99.90;;;;;;4943252;28;213273;-71
2023/06/20 06:37:30;;;;;;;14.77;9.18;;;20.70;99.90;;;;;;4981065;28;20050;-70
2023/06/20 06:39:58;;;;;;;15.55;9.70;;;20.80;99.90;;;;;;4932082;28;218510;-70
2023/06/20 06:42:24;;;;;;;16.00;9.60;;;20.90;99.90;;;;;;4964121;28;20062;-70
2023/06/20 06:44:51;;;;;;;15.75;9.68;;;21.00;99.90;;;;;;4935991;28;214999;-70
2023/06/20 06:47:17;;;;;;;16.38;9.85;;;21.10;99.90;;;;;;4975409;28;20066;-70
2023/06/20 06:49:43;;;;;;;15.52;8.98;;;21.10;99.90;;;;;;4931645;28;209428;-71
2023/06/20 06:52:11;;;;;;;16.63;10.18;;;21.20;99.90;;;;;;4966651;28;20047;-71
2023/06/20 06:54:37;;;;;;;18.27;9.95;;;21.30;99.90;;;;;;4912774;28;215132;-71
2023/06/20 06:57:03;;;;;;;16.88;9.48;;;21.40;99.90;;;;;;4968139;28;20067;-71
2023/06/20 06:59:29;;;;;;;14.13;9.15;;;21.70;99.90;;;;;;4919076;28;229534;-70
2023/06/20 07:01:56;;;;;;;15.68;9.13;;;21.90;99.90;;;;;;4984458;28;20054;-70
2023/06/20 07:04:22;;;;;;;17.17;9.23;;;22.10;99.90;;;;;;4929626;28;216963;-70
2023/06/20 07:06:48;;;;;;;14.45;8.85;;;22.20;99.90;;;;;;4979664;28;20062;-70
2023/06/20 07:09:14;;;;;;;13.75;9.18;;;22.30;99.90;;;;;;4909477;28;233189;-70
2023/06/20 07:11:40;;;;;;;16.63;9.30;;;22.40;99.90;;;;;;4973347;28;20063;-70
2023/06/20 07:14:06;;;;;;;15.88;9.38;;;22.50;99.90;;;;;;4921858;28;221572;-71
2023/06/20 07:16:32;;;;;;;12.85;8.55;;;22.50;99.90;;;;;;4968746;28;20055;-71
2023/06/20 07:18:59;;;;;;;17.00;8.55;;;22.50;99.90;;;;;;4924036;28;208963;-70
2023/06/20 07:21:28;;;;;;;13.77;8.30;;;22.50;99.90;;;;;;4982153;28;20058;-70
2023/06/20 07:23:54;;;;;;;13.60;8.30;;;22.60;99.90;;;;;;4917324;28;217125;-70
2023/06/20 07:26:20;;;;;;;13.55;8.73;;;22.60;99.90;;;;;;4979180;28;20066;-70
2023/06/20 07:28:46;;;;;;;13.02;8.60;;;22.70;99.90;;;;;;4915761;28;211922;-71
2023/06/20 07:31:19;;;;;;;13.50;7.70;;;22.90;99.90;;;;;;4973779;28;20046;-70
2023/06/20 07:33:46;;;;;;;13.15;8.35;;;23.00;99.90;;;;;;4911855;28;214933;-70
2023/06/20 07:36:12;;;;;;;13.55;8.32;;;23.10;99.90;;;;;;4983785;28;20047;-70
2023/06/20 07:38:39;;;;;;;13.20;8.25;;;23.30;99.90;;;;;;4929434;28;209480;-70
2023/06/20 07:41:05;;;;;;;12.50;7.70;;;23.40;99.90;;;;;;5003844;28;20054;-70
2023/06/20 07:43:31;;;;;;;14.60;8.15;;;23.40;99.90;;;;;;4923284;28;224221;-70
2023/06/20 07:45:57;;;;;;;14.63;8.05;;;23.50;99.90;;;;;;4982316;28;20559;-70
2023/06/20 07:48:24;;;;;;;12.45;8.18;;;23.70;99.90;;;;;;4917441;28;218209;-70
2023/06/20 07:50:51;;;;;;;15.05;7.72;;;23.80;99.90;;;;;;4957468;28;20047;-70
2023/06/20 07:53:18;;;;;;;13.83;8.10;;;23.90;99.90;;;;;;4930815;28;217870;-70
2023/06/20 07:55:44;;;;;;;13.15;8.00;;;23.80;99.90;;;;;;4948162;28;20692;-70
2023/06/20 07:58:10;;;;;;;13.16;8.10;;;23.80;99.90;;;;;;4963783;28;210668;-71
2023/06/20 08:00:36;;;;;;;13.13;7.90;;;23.80;99.90;;;;;;4963238;28;207461;-71
2023/06/20 08:03:03;;;;;;;14.40;7.88;;;23.90;99.90;;;;;;4981418;28;20050;-70
2023/06/20 08:05:29;;;;;;;11.40;7.13;;;24.00;99.90;;;;;;4966754;28;212115;-71
2023/06/20 08:07:55;;;;;;;13.98;7.88;;;23.90;99.90;;;;;;4980122;28;20062;-70
2023/06/20 08:10:21;;;;;;;13.95;8.07;;;23.80;99.90;;;;;;4932060;28;206718;-71
2023/06/20 08:12:47;;;;;;;18.27;7.82;;;23.90;99.90;;;;;;4980482;28;20058;-70
2023/06/20 08:15:13;;;;;;;14.60;7.43;;;23.90;99.90;;;;;;4928365;28;213573;-70
2023/06/20 08:17:39;;;;;;;11.55;7.25;;;23.90;99.90;;;;;;4984986;28;20096;-75
2023/06/20 08:20:08;;;;;;;14.25;7.85;;;23.90;99.90;;;;;;4937053;28;212121;-71
2023/06/20 08:22:38;;;;;;;18.05;7.97;;;24.10;99.90;;;;;;4977987;28;20480;-71
2023/06/20 08:25:05;;;;;;;17.00;7.35;;;24.20;99.90;;;;;;4945719;28;218058;-70
2023/06/20 08:27:32;;;;;;;14.15;7.53;;;24.30;99.90;;;;;;4983985;28;20964;-71
2023/06/20 08:29:58;;;;;;;13.70;7.18;;;24.50;99.80;;;;;;4944289;28;207758;-71
2023/06/20 08:32:24;;;;;;;12.35;7.47;;;24.50;99.90;;;;;;4981888;28;20050;-71
2023/06/20 08:34:50;;;;;;;13.10;7.20;;;24.50;99.80;;;;;;4955514;28;209931;-71
2023/06/20 08:37:22;;;;;;;13.07;7.38;;;24.60;99.80;;;;;;4986967;28;20700;-70
2023/06/20 08:39:48;;;;;;;11.80;6.88;;;24.60;99.50;;;;;;4938929;28;223592;-71
2023/06/20 08:42:14;;;;;;;12.27;7.47;;;24.40;99.80;;;;;;4970439;28;20054;-70
2023/06/20 08:44:40;;;;;;;12.65;7.32;;;24.40;99.70;;;;;;4928758;28;216087;-70
2023/06/20 08:47:06;;;;;;;11.50;7.32;;;24.50;99.80;;;;;;4971956;28;20062;-71
2023/06/20 08:49:33;;;;;;;15.88;7.68;;;24.60;99.80;;;;;;4916305;28;212271;-70
2023/06/20 08:52:07;;;;;;;10.57;7.00;;;24.80;99.70;;;;;;4966110;28;20191;-70
2023/06/20 08:54:37;;;;;;;12.02;7.10;;;24.90;99.60;;;;;;4905742;28;232058;-71
2023/06/20 08:57:06;;;;;;;10.68;7.38;;;25.10;99.30;;;;;;4966818;28;20429;-71
2023/06/20 08:59:34;;;;;;;13.10;7.90;;;25.20;99.30;;;;;;4921380;28;207559;-71
2023/06/20 09:02:00;;;;;;;13.63;7.40;;;25.20;99.10;;;;;;4986100;28;20057;-71
2023/06/20 09:04:29;;;;;;;11.07;6.50;;;25.20;99.10;;;;;;4933766;28;209415;-71
2023/06/20 09:06:56;;;;;;;12.45;6.85;;;25.30;99.10;;;;;;4983042;28;20054;-71
2023/06/20 09:09:23;;;;;;;13.55;6.97;;;25.40;99.00;;;;;;4931411;28;213153;-71
2023/06/20 09:11:52;;;;;;;10.48;6.95;;;25.70;99.00;;;;;;4973529;28;20066;-71
2023/06/20 09:14:19;;;;;;;11.88;6.90;;;26.00;98.80;;;;;;4932996;28;221671;-71
2023/06/20 09:16:48;;;;;;;11.40;6.90;;;26.30;98.50;;;;;;4992285;28;20046;-71
2023/06/20 09:19:14;;;;;;;10.75;6.60;;;27.10;98.40;;;;;;4933871;28;218650;-71
2023/06/20 09:21:40;;;;;;;17.35;7.05;;;27.60;97.90;;;;;;4996205;28;20062;-71
2023/06/20 09:24:07;;;;;;;12.27;7.18;;;27.90;97.70;;;;;;4926701;28;222347;-71
2023/06/20 09:26:33;;;;;;;10.57;6.57;;;27.80;96.80;;;;;;4969624;28;20061;-71
2023/06/20 09:29:14;;;;;;;10.60;6.40;;;27.70;97.30;;;;;;4912032;28;207666;-69
2023/06/20 09:31:42;;;;;;;11.93;6.57;;;27.50;96.50;;;;;;4965690;28;20054;-69
2023/06/20 09:34:15;;;;;;;11.68;6.60;;;27.80;97.00;;;;;;4908849;28;224591;-71
2023/06/20 09:36:42;;;;;;;12.43;7.05;;;28.80;96.70;;;;;;4963391;28;20056;-70
2023/06/20 09:39:12;;;;;;;10.85;5.88;;;29.30;96.20;;;;;;4913958;28;210858;-71
2023/06/20 09:41:44;;;;;;;11.68;6.28;;;29.60;96.00;;;;;;4990816;28;20054;-71
2023/06/20 09:44:10;;;;;;;9.18;5.55;;;29.80;95.70;;;;;;4925781;28;217441;-71
2023/06/20 09:46:36;;;;;;;10.55;5.95;;;30.20;95.30;;;;;;4991312;28;20058;-70
2023/06/20 09:49:04;;;;;;;9.32;5.45;;;30.00;95.00;;;;;;4931019;28;210334;-70
2023/06/20 09:51:37;;;;;;;13.63;5.30;;;30.20;95.00;;;;;;4966372;28;20055;-70
2023/06/20 09:54:05;;;;;;;10.45;5.13;;;30.70;94.40;;;;;;4913613;28;175342;-71
2023/06/20 09:56:52;;;;;;;10.20;5.60;;;31.30;94.30;;;;;;4978152;28;20062;-71
2023/06/20 09:59:21;;;;;;;10.10;5.00;;;32.10;93.20;;;;;;4930124;28;211376;-71
2023/06/20 10:01:49;;;;;;;10.20;5.20;;;32.40;93.40;;;;;;4983425;28;20060;-70
2023/06/20 10:04:16;;;;;;;9.38;5.03;;;32.80;92.80;;;;;;4932492;28;208913;-71
2023/06/20 10:06:43;;;;;;;9.75;4.68;;;33.20;92.60;;;;;;4957518;28;20062;-70
2023/06/20 10:09:09;;;;;;;11.52;4.78;;;33.80;92.30;;;;;;4918177;28;208750;-71
2023/06/20 10:11:38;;;;;;;9.65;4.60;;;34.10;91.50;;;;;;4986344;28;20409;-71
2023/06/20 10:14:04;;;;;;;8.90;4.50;;;34.30;91.10;;;;;;4909607;28;222167;-71
2023/06/20 10:16:31;;;;;;;10.65;4.60;;;34.30;91.00;;;;;;4970026;28;20059;-71
2023/06/20 10:18:57;;;;;;;9.30;4.90;;;34.10;90.20;;;;;;4927250;28;220984;-71
2023/06/20 10:21:54;;;;;;;8.98;4.63;;;34.00;90.40;;;;;;4988825;28;20057;-71
2023/06/20 10:24:20;;;;;;;11.63;4.60;;;34.20;90.10;;;;;;4924153;28;216173;-71
2023/06/20 10:26:54;;;;;;;9.65;4.32;;;34.40;89.90;;;;;;4971048;28;20055;-71
2023/06/20 10:29:21;;;;;;;10.27;4.70;;;34.60;88.70;;;;;;4908078;28;211436;-71
2023/06/20 10:32:04;;;;;;;12.57;4.50;;;34.40;89.50;;;;;;4957835;28;20054;-72
2023/06/20 10:34:39;;;;;;;8.65;4.30;;;34.60;89.40;;;;;;4933698;28;156765;-71
2023/06/20 10:37:27;;;;;;;10.02;4.63;;;35.10;88.50;;;;;;4962440;28;20054;-72
2023/06/20 10:39:57;;;;;;;10.48;4.15;;;35.30;87.40;;;;;;4916636;28;207544;-73
2023/06/20 10:42:43;;;;;;;10.27;4.57;;;35.50;87.70;;;;;;4966118;28;20539;-72
2023/06/20 10:45:27;;;;;;;11.43;4.80;;;35.60;87.00;;;;;;4944039;28;140041;-72
2023/06/20 10:47:53;;;;;;;9.20;4.10;;;35.90;87.30;;;;;;4984958;28;20062;-72
2023/06/20 10:50:20;;;;;;;10.35;4.20;;;36.10;86.60;;;;;;4957144;28;215393;-72
2023/06/20 10:52:47;;;;;;;8.35;3.92;;;36.20;85.30;;;;;;4981251;28;20100;-72
2023/06/20 10:55:24;;;;;;;10.68;4.00;;;36.30;85.40;;;;;;4912745;28;212331;-72
2023/06/20 10:57:51;;;;;;;9.55;3.72;;;36.10;84.40;;;;;;4982582;28;20444;-72
2023/06/20 11:00:19;;;;;;;9.18;3.58;;;35.90;84.70;;;;;;4929708;28;207608;-72
2023/06/20 11:02:47;;;;;;;9.25;3.67;;;36.00;85.30;;;;;;4982813;28;20050;-72
2023/06/20 11:05:14;;;;;;;8.30;3.80;;;35.60;82.60;;;;;;4965203;28;212409;-72
2023/06/20 11:08:01;;;;;;;10.30;4.00;;;35.20;84.50;;;;;;4984041;28;20054;-72
2023/06/20 11:10:32;;;;;;;9.30;3.80;;;35.30;83.60;;;;;;4954915;28;211137;-71
2023/06/20 11:13:00;;;;;;;8.05;3.55;;;35.30;83.70;;;;;;4964794;28;20080;-71
2023/06/20 11:15:31;;;;;;;9.15;4.40;;;35.40;84.70;;;;;;4957788;28;215587;-72
2023/06/20 11:18:00;;;;;;;8.20;3.67;;;35.90;83.60;;;;;;4982726;28;20419;-72
2023/06/20 11:20:27;;;;;;;8.52;3.78;;;36.30;83.60;;;;;;4939962;28;211707;-71
2023/06/20 11:22:57;;;;;;;8.48;4.13;;;36.10;83.30;;;;;;4984164;28;20065;-72
2023/06/20 11:25:28;;;;;;;8.35;3.42;;;36.30;83.40;;;;;;4953521;28;207452;-72
2023/06/20 11:27:55;;;;;;;7.47;3.45;;;36.60;83.60;;;;;;4990935;28;20046;-72
2023/06/20 11:30:28;;;;;;;8.27;3.40;;;36.90;82.50;;;;;;4954665;28;216064;-71
2023/06/20 11:33:27;;;;;;;10.23;4.07;;;37.20;82.60;;;;;;4983914;28;20484;-72
2023/06/20 11:35:55;;;;;;;8.00;3.40;;;37.60;82.20;;;;;;4898735;28;73556;-71
2023/06/20 11:38:24;;;;;;;9.00;3.40;;;37.90;81.90;;;;;;4908064;28;213757;-71
2023/06/20 11:41:03;;;;;;;7.55;3.70;;;38.20;81.80;;;;;;4992194;28;20047;-72
2023/06/20 11:43:34;;;;;;;7.77;3.73;;;38.40;80.30;;;;;;4944899;28;216702;-72
2023/06/20 11:46:01;;;;;;;7.70;2.85;;;37.90;80.50;;;;;;5004014;28;20054;-72
2023/06/20 11:48:28;;;;;;;10.27;3.20;;;37.90;79.20;;;;;;4948970;28;215034;-72
2023/06/20 11:50:59;;;;;;;9.10;3.40;;;38.20;79.70;;;;;;5003900;28;20058;-72
2023/06/20 11:53:36;;;;;;;7.75;3.28;;;38.00;79.10;;;;;;4928731;28;217452;-71
2023/06/20 11:56:07;;;;;;;8.55;3.78;;;37.90;79.30;;;;;;4997132;28;20120;-71
2023/06/20 11:58:40;;;;;;;7.53;3.25;;;37.60;78.90;;;;;;4924392;28;218439;-72
2023/06/20 12:01:16;;;;;;;9.80;3.50;;;37.90;78.70;;;;;;4993086;28;20062;-71
2023/06/20 12:03:44;;;;;;;9.93;3.20;;;38.20;78.20;;;;;;4939843;28;212409;-72
2023/06/20 12:06:43;;;;;;;8.77;3.17;;;38.90;78.70;;;;;;4989753;28;20486;-72
2023/06/20 12:09:11;;;;;;;8.48;3.22;;;39.00;76.90;;;;;;4912589;28;215795;-72
2023/06/20 12:11:55;;;;;;;10.07;3.33;;;39.00;76.40;;;;;;4979237;28;20051;-72
2023/06/20 12:14:22;;;;;;;8.35;3.50;;;39.10;76.40;;;;;;4929513;28;213597;-72
2023/06/20 12:16:49;;;;;;;9.80;3.40;;;39.00;75.60;;;;;;4988761;28;20066;-72
2023/06/20 12:19:16;;;;;;;9.25;3.45;;;39.10;75.70;;;;;;4946108;28;213087;-73
2023/06/20 12:21:43;;;;;;;8.18;3.40;;;39.40;75.00;;;;;;4995637;28;20054;-71
2023/06/20 12:24:10;;;;;;;8.18;3.10;;;38.90;75.40;;;;;;4932811;28;217728;-72
2023/06/20 12:26:36;;;;;;;8.52;3.50;;;39.00;76.10;;;;;;4980499;28;20419;-71
2023/06/20 12:29:03;;;;;;;10.05;3.40;;;38.90;74.70;;;;;;4938670;28;207921;-72
2023/06/20 12:31:30;;;;;;;8.82;3.70;;;37.80;74.30;;;;;;4988374;28;20054;-73
2023/06/20 12:33:56;;;;;;;8.50;3.30;;;37.90;74.30;;;;;;4944415;28;214134;-72
2023/06/20 12:36:22;;;;;;;9.80;3.67;;;37.70;75.50;;;;;;4993922;28;20050;-71